Time;durP1;ratioP1;P1;durP2;ratioP2;P2;SDS_P1;SDS_P2;PMS_P1;PMS_P2;Temp;Humidity;BMP_temperature;BMP_pressure;BME280_temperature;BME280_humidity;BME280_pressure;Samples;Min_cycle;Max_cycle;Signal;HPM_P1;HPM_P2
2024/03/25 00:01:16;;;;;;;;;;;;;;;;;;4911724;29;20406;-86
2024/03/25 00:03:42;;;;;;;;;;;;;;;;;;4916337;29;20522;-86
2024/03/25 00:06:08;;;;;;;;;;;;;;;;;;4904369;29;19951;-87
2024/03/25 00:08:34;;;;;;;;;;;;;;;;;;4906181;29;20002;-85
2024/03/25 00:11:00;;;;;;;;;;;;;;;;;;4908927;29;19979;-85
2024/03/25 00:13:26;;;;;;;;;;;;;;;;;;4909954;29;19970;-87
2024/03/25 00:15:52;;;;;;;;;;;;;;;;;;4908959;29;19974;-86
2024/03/25 00:18:18;;;;;;;;;;;;;;;;;;4921910;29;19918;-87
2024/03/25 00:20:44;;;;;;;;;;;;;;;;;;4936267;29;19933;-87
2024/03/25 00:23:11;;;;;;;;;;;;;;;;;;4935924;29;19915;-87
2024/03/25 00:25:37;;;;;;;;;;;;;;;;;;4932743;29;20008;-84
2024/03/25 00:28:04;;;;;;;;;;;;;;;;;;4934612;29;20011;-84
2024/03/25 00:30:30;;;;;;;;;;;;;;;;;;4934598;29;19942;-83
2024/03/25 00:32:56;;;;;;;;;;;;;;;;;;4934381;29;19937;-83
2024/03/25 00:35:22;;;;;;;;;;;;;;;;;;4934141;29;19958;-83
2024/03/25 00:37:48;;;;;;;;;;;;;;;;;;4935951;29;20286;-83
2024/03/25 00:40:14;;;;;;;;;;;;;;;;;;4927165;29;19918;-83
2024/03/25 00:42:40;;;;;;;;;;;;;;;;;;4927404;29;19942;-82
2024/03/25 00:45:07;;;;;;;;;;;;;;;;;;4930725;29;19938;-83
2024/03/25 00:47:33;;;;;;;;;;;;;;;;;;4928191;29;19917;-83
2024/03/25 00:49:58;;;;;;;;;;;;;;;;;;4935583;29;19911;-88
2024/03/25 00:52:24;;;;;;;;;;;;;;;;;;4935772;29;19950;-85
2024/03/25 00:54:50;;;;;;;;;;;;;;;;;;4918001;29;19951;-82
2024/03/25 00:57:16;;;;;;;;;;;;;;;;;;4936136;29;19952;-86
2024/03/25 00:59:42;;;;;;;;;;;;;;;;;;4929007;29;19914;-84
2024/03/25 01:02:08;;;;;;;;;;;;;;;;;;4931504;29;20330;-83
2024/03/25 01:04:34;;;;;;;;;;;;;;;;;;4934337;29;19954;-83
2024/03/25 01:07:00;;;;;;;;;;;;;;;;;;4916758;29;20580;-84
2024/03/25 01:09:26;;;;;;;;;;;;;;;;;;4913907;29;19911;-83
2024/03/25 01:11:52;;;;;;;;;;;;;;;;;;4931846;29;20371;-84
2024/03/25 01:14:18;;;;;;;;;;;;;;;;;;4925929;29;19966;-85
2024/03/25 01:16:44;;;;;;;;;;;;;;;;;;4931826;29;20369;-84
2024/03/25 01:19:10;;;;;;;;;;;;;;;;;;4933202;29;20413;-85
2024/03/25 01:21:36;;;;;;;;;;;;;;;;;;4933104;29;21116;-85
2024/03/25 01:24:03;;;;;;;;;;;;;;;;;;4931292;29;19974;-85
2024/03/25 01:26:29;;;;;;;;;;;;;;;;;;4915407;29;19978;-84
2024/03/25 01:28:55;;;;;;;;;;;;;;;;;;4933099;29;19971;-83
2024/03/25 01:31:21;;;;;;;;;;;;;;;;;;4934092;29;19961;-85
2024/03/25 01:33:47;;;;;;;;;;;;;;;;;;4933219;29;19950;-85
2024/03/25 01:36:17;;;;;;;;;;;;;;;;;;4929445;29;20021;-88
2024/03/25 01:38:43;;;;;;;;;;;;;;;;;;4933865;29;19918;-86
2024/03/25 01:41:09;;;;;;;;;;;;;;;;;;4916681;29;20382;-85
2024/03/25 01:43:35;;;;;;;;;;;;;;;;;;4933209;29;19910;-87
2024/03/25 01:46:01;;;;;;;;;;;;;;;;;;4933087;29;19919;-85
2024/03/25 01:48:27;;;;;;;;;;;;;;;;;;4934129;29;19965;-87
2024/03/25 01:50:53;;;;;;;;;;;;;;;;;;4933996;29;19960;-84
2024/03/25 01:53:19;;;;;;;;;;;;;;;;;;4930094;29;19954;-84
2024/03/25 01:55:45;;;;;;;;;;;;;;;;;;4933900;29;20284;-86
2024/03/25 01:58:11;;;;;;;;;;;;;;;;;;4927943;29;20379;-87
2024/03/25 02:00:37;;;;;;;;;;;;;;;;;;4933568;29;20009;-87
2024/03/25 02:03:03;;;;;;;;;;;;;;;;;;4931044;29;19965;-87
2024/03/25 02:05:29;;;;;;;;;;;;;;;;;;4933392;29;19949;-87
2024/03/25 02:07:55;;;;;;;;;;;;;;;;;;4932267;29;19954;-86
2024/03/25 02:10:21;;;;;;;;;;;;;;;;;;4931682;29;20009;-87
2024/03/25 02:12:46;;;;;;;;;;;;;;;;;;4931535;29;20013;-86
2024/03/25 02:15:15;;;;;;;;;;;;;;;;;;4933688;29;19968;-85
2024/03/25 02:17:41;;;;;;;;;;;;;;;;;;4933367;29;19962;-85
2024/03/25 02:20:10;;;;;;;;;;;;;;;;;;4932151;29;20411;-86
2024/03/25 02:22:36;;;;;;;;;;;;;;;;;;4933243;29;19917;-85
2024/03/25 02:25:03;;;;;;;;;;;;;;;;;;4914088;29;19949;-85
2024/03/25 02:27:30;;;;;;;;;;;;;;;;;;4910487;29;19919;-85
2024/03/25 02:29:56;;;;;;;;;;;;;;;;;;4933099;29;19968;-86
2024/03/25 02:32:24;;;;;;;;;;;;;;;;;;4932901;29;20103;-86
2024/03/25 02:34:50;;;;;;;;;;;;;;;;;;4915570;29;19919;-86
2024/03/25 02:37:16;;;;;;;;;;;;;;;;;;4932733;29;20074;-85
2024/03/25 02:39:41;;;;;;;;;;;;;;;;;;4931191;29;19958;-87
2024/03/25 02:42:07;;;;;;;;;;;;;;;;;;4930818;29;19961;-85
2024/03/25 02:44:33;;;;;;;;;;;;;;;;;;4933949;29;19960;-85
2024/03/25 02:46:59;;;;;;;;;;;;;;;;;;4916249;29;19946;-82
2024/03/25 02:49:25;;;;;;;;;;;;;;;;;;4933773;29;19917;-83
2024/03/25 02:51:51;;;;;;;;;;;;;;;;;;4935370;29;19911;-82
2024/03/25 02:54:17;;;;;;;;;;;;;;;;;;4932762;29;19954;-83
2024/03/25 02:56:43;;;;;;;;;;;;;;;;;;4940908;29;19915;-81
2024/03/25 02:59:09;;;;;;;;;;;;;;;;;;4936686;29;19921;-84
2024/03/25 03:01:35;;;;;;;;;;;;;;;;;;4958072;29;19911;-86
2024/03/25 03:04:01;;;;;;;;;;;;;;;;;;4960008;29;19938;-83
2024/03/25 03:06:27;;;;;;;;;;;;;;;;;;4944041;29;19926;-85
2024/03/25 03:08:53;;;;;;;;;;;;;;;;;;4958021;28;19911;-83
2024/03/25 03:11:19;;;;;;;;;;;;;;;;;;4959929;28;20103;-86
2024/03/25 03:13:45;;;;;;;;;;;;;;;;;;4960458;28;19966;-86
2024/03/25 03:16:11;;;;;;;;;;;;;;;;;;4960243;28;19962;-86
2024/03/25 03:18:37;;;;;;;;;;;;;;;;;;4939654;29;20017;-85
2024/03/25 03:21:02;;;;;;;;;;;;;;;;;;4947560;29;19911;-83
2024/03/25 03:23:28;;;;;;;;;;;;;;;;;;4939245;29;19915;-85
2024/03/25 03:25:55;;;;;;;;;;;;;;;;;;4935305;29;20339;-83
2024/03/25 03:28:21;;;;;;;;;;;;;;;;;;4937260;29;20275;-82
2024/03/25 03:30:47;;;;;;;;;;;;;;;;;;4935864;29;19911;-83
2024/03/25 03:33:13;;;;;;;;;;;;;;;;;;4938443;29;19949;-85
2024/03/25 03:35:39;;;;;;;;;;;;;;;;;;4938313;29;19949;-84
2024/03/25 03:38:05;;;;;;;;;;;;;;;;;;4936043;29;19962;-82
2024/03/25 03:40:31;;;;;;;;;;;;;;;;;;4937505;29;19942;-83
2024/03/25 03:42:57;;;;;;;;;;;;;;;;;;4937704;29;19950;-83
2024/03/25 03:45:22;;;;;;;;;;;;;;;;;;4937766;29;19918;-83
2024/03/25 03:47:48;;;;;;;;;;;;;;;;;;4935719;29;19915;-83
2024/03/25 03:50:14;;;;;;;;;;;;;;;;;;4937377;29;19950;-82
2024/03/25 03:52:40;;;;;;;;;;;;;;;;;;4937577;29;19970;-84
2024/03/25 03:55:06;;;;;;;;;;;;;;;;;;4935348;29;19946;-83
2024/03/25 03:57:32;;;;;;;;;;;;;;;;;;4936482;29;20009;-87
2024/03/25 03:59:58;;;;;;;;;;;;;;;;;;4934672;29;19915;-87
2024/03/25 04:02:24;;;;;;;;;;;;;;;;;;4933035;29;20010;-87
2024/03/25 04:04:50;;;;;;;;;;;;;;;;;;4935197;29;19955;-87
2024/03/25 04:07:16;;;;;;;;;;;;;;;;;;4931838;29;19926;-88
2024/03/25 04:09:42;;;;;;;;;;;;;;;;;;4935448;29;19965;-88
2024/03/25 04:12:08;;;;;;;;;;;;;;;;;;4911035;29;19949;-87
2024/03/25 04:14:34;;;;;;;;;;;;;;;;;;4931667;29;19958;-87
2024/03/25 04:17:00;;;;;;;;;;;;;;;;;;4936059;29;19915;-87
2024/03/25 04:19:27;;;;;;;;;;;;;;;;;;4933665;29;19976;-86
2024/03/25 04:21:52;;;;;;;;;;;;;;;;;;4934370;29;20468;-87
2024/03/25 04:24:18;;;;;;;;;;;;;;;;;;4936571;29;19911;-88
2024/03/25 04:26:44;;;;;;;;;;;;;;;;;;4928403;29;19922;-86
2024/03/25 04:29:10;;;;;;;;;;;;;;;;;;4936673;29;20351;-85
2024/03/25 04:31:37;;;;;;;;;;;;;;;;;;4936160;29;19911;-86
2024/03/25 04:34:04;;;;;;;;;;;;;;;;;;4935295;29;19911;-86
2024/03/25 04:36:30;;;;;;;;;;;;;;;;;;4932062;29;20410;-86
2024/03/25 04:38:56;;;;;;;;;;;;;;;;;;4936111;29;20006;-87
2024/03/25 04:41:22;;;;;;;;;;;;;;;;;;4930313;29;19938;-86
2024/03/25 04:43:48;;;;;;;;;;;;;;;;;;4918787;29;20350;-86
2024/03/25 04:46:14;;;;;;;;;;;;;;;;;;4935245;29;19921;-86
2024/03/25 04:48:40;;;;;;;;;;;;;;;;;;4928266;29;19918;-86
2024/03/25 04:51:06;;;;;;;;;;;;;;;;;;4915561;29;19961;-86
2024/03/25 04:53:32;;;;;;;;;;;;;;;;;;4933054;29;20033;-86
2024/03/25 04:55:58;;;;;;;;;;;;;;;;;;4927895;29;19950;-86
2024/03/25 04:58:24;;;;;;;;;;;;;;;;;;4933664;29;20029;-86
2024/03/25 05:00:50;;;;;;;;;;;;;;;;;;4933860;29;19954;-87
2024/03/25 05:03:16;;;;;;;;;;;;;;;;;;4935428;29;19938;-86
2024/03/25 05:05:42;;;;;;;;;;;;;;;;;;4934123;29;20375;-86
2024/03/25 05:08:08;;;;;;;;;;;;;;;;;;4929843;29;20377;-85
2024/03/25 05:10:34;;;;;;;;;;;;;;;;;;4913262;29;19966;-86
2024/03/25 05:13:00;;;;;;;;;;;;;;;;;;4928570;29;19921;-85
2024/03/25 05:15:26;;;;;;;;;;;;;;;;;;4929834;29;19915;-86
2024/03/25 05:17:52;;;;;;;;;;;;;;;;;;4934701;29;20040;-86
2024/03/25 05:20:18;;;;;;;;;;;;;;;;;;4934047;29;19971;-85
2024/03/25 05:22:44;;;;;;;;;;;;;;;;;;4934140;29;19915;-86
2024/03/25 05:25:10;;;;;;;;;;;;;;;;;;4934695;29;19921;-86
2024/03/25 05:27:36;;;;;;;;;;;;;;;;;;4934097;29;19957;-86
2024/03/25 05:30:02;;;;;;;;;;;;;;;;;;4934684;29;20009;-86
2024/03/25 05:32:28;;;;;;;;;;;;;;;;;;4934006;29;19963;-86
2024/03/25 05:34:54;;;;;;;;;;;;;;;;;;4933322;29;19972;-86
2024/03/25 05:37:21;;;;;;;;;;;;;;;;;;4931930;29;19966;-86
2024/03/25 05:39:47;;;;;;;;;;;;;;;;;;4933654;29;19970;-85
2024/03/25 05:42:13;;;;;;;;;;;;;;;;;;4916349;29;19963;-85
2024/03/25 05:44:39;;;;;;;;;;;;;;;;;;4934513;29;19957;-86
2024/03/25 05:47:05;;;;;;;;;;;;;;;;;;4933696;29;19921;-86
2024/03/25 05:49:30;;;;;;;;;;;;;;;;;;4930711;29;19967;-85
2024/03/25 05:51:56;;;;;;;;;;;;;;;;;;4914905;29;19954;-85
2024/03/25 05:54:22;;;;;;;;;;;;;;;;;;4935659;29;20067;-84
2024/03/25 05:56:48;;;;;;;;;;;;;;;;;;4929846;29;19951;-82
2024/03/25 05:59:14;;;;;;;;;;;;;;;;;;4939813;29;19922;-85
2024/03/25 06:01:40;;;;;;;;;;;;;;;;;;4931073;29;20306;-85
2024/03/25 06:04:06;;;;;;;;;;;;;;;;;;4933703;29;20059;-85
2024/03/25 06:06:32;;;;;;;;;;;;;;;;;;4931443;29;19949;-85
2024/03/25 06:08:58;;;;;;;;;;;;;;;;;;4934043;29;19950;-85
2024/03/25 06:11:24;;;;;;;;;;;;;;;;;;4931836;29;20383;-85
2024/03/25 06:13:50;;;;;;;;;;;;;;;;;;4914955;29;20343;-86
2024/03/25 06:16:16;;;;;;;;;;;;;;;;;;4935114;29;20355;-81
2024/03/25 06:18:42;;;;;;;;;;;;;;;;;;4910970;29;19941;-83
2024/03/25 06:21:08;;;;;;;;;;;;;;;;;;4930482;29;20000;-83
2024/03/25 06:23:34;;;;;;;;;;;;;;;;;;4929295;29;20346;-83
2024/03/25 06:26:00;;;;;;;;;;;;;;;;;;4930155;29;20286;-82
2024/03/25 06:28:25;;;;;;;;;;;;;;;;;;4925619;29;19946;-83
2024/03/25 06:36:21;;;;;;;;;;;;;;;;;;4927536;29;19922;-84
2024/03/25 06:38:47;;;;;;;;;;;;;;;;;;4926059;29;20351;-84
2024/03/25 06:41:13;;;;;;;;;;;;;;;;;;4926135;29;20379;-83
2024/03/25 06:43:39;;;;;;;;;;;;;;;;;;4927631;29;19942;-82
2024/03/25 06:46:05;;;;;;;;;;;;;;;;;;4933041;29;19970;-84
2024/03/25 06:48:31;;;;;;;;;;;;;;;;;;4933383;29;19958;-82
2024/03/25 06:50:57;;;;;;;;;;;;;;;;;;4930429;29;20382;-82
2024/03/25 06:53:23;;;;;;;;;;;;;;;;;;4928192;29;19954;-83
2024/03/25 06:55:49;;;;;;;;;;;;;;;;;;4932317;29;19971;-84
2024/03/25 06:58:15;;;;;;;;;;;;;;;;;;4928185;29;19961;-82
2024/03/25 07:00:41;;;;;;;;;;;;;;;;;;4925275;29;20379;-87
2024/03/25 07:03:07;;;;;;;;;;;;;;;;;;4929723;29;19954;-85
2024/03/25 07:05:33;;;;;;;;;;;;;;;;;;4930396;29;19961;-83
2024/03/25 07:08:00;;;;;;;;;;;;;;;;;;4915907;29;20010;-84
2024/03/25 07:10:26;;;;;;;;;;;;;;;;;;4929359;29;19911;-83
2024/03/25 07:12:52;;;;;;;;;;;;;;;;;;4930036;29;20004;-82
2024/03/25 07:15:18;;;;;;;;;;;;;;;;;;4931996;29;20323;-83
2024/03/25 07:17:44;;;;;;;;;;;;;;;;;;4926230;29;20438;-83
2024/03/25 07:20:10;;;;;;;;;;;;;;;;;;4932059;29;19919;-84
2024/03/25 07:22:36;;;;;;;;;;;;;;;;;;4932498;29;19917;-84
2024/03/25 07:25:02;;;;;;;;;;;;;;;;;;4932072;29;20016;-84
2024/03/25 07:27:28;;;;;;;;;;;;;;;;;;4932122;29;19922;-88
2024/03/25 07:29:54;;;;;;;;;;;;;;;;;;4933912;29;19914;-88
2024/03/25 07:32:20;;;;;;;;;;;;;;;;;;4925082;29;19922;-88
2024/03/25 07:34:46;;;;;;;;;;;;;;;;;;4916223;29;19911;-88
2024/03/25 07:37:12;;;;;;;;;;;;;;;;;;4929458;29;19914;-88
2024/03/25 07:39:38;;;;;;;;;;;;;;;;;;4931269;29;20386;-88
2024/03/25 07:42:04;;;;;;;;;;;;;;;;;;4927995;29;20256;-88
2024/03/25 07:44:30;;;;;;;;;;;;;;;;;;4934329;29;20279;-88
2024/03/25 07:46:56;;;;;;;;;;;;;;;;;;4948626;29;19970;-88
2024/03/25 07:49:22;;;;;;;;;;;;;;;;;;4955544;29;19974;-88
2024/03/25 07:51:48;;;;;;;;;;;;;;;;;;4934794;29;19962;-88
2024/03/25 07:54:16;;;;;;;;;;;;;;;;;;4958967;28;19918;-88
2024/03/25 07:56:42;;;;;;;;;;;;;;;;;;4951852;29;19902;-86
2024/03/25 07:59:08;;;;;;;;;;;;;;;;;;4954392;29;19967;-88
2024/03/25 08:01:34;;;;;;;;;;;;;;;;;;4958760;28;19929;-87
2024/03/25 08:04:02;;;;;;;;;;;;;;;;;;4959091;28;19982;-87
2024/03/25 08:06:28;;;;;;;;;;;;;;;;;;4942853;29;19902;-87
2024/03/25 08:08:53;;;;;;;;;;;;;;;;;;4958560;29;20001;-88
2024/03/25 08:11:20;;;;;;;;;;;;;;;;;;4945520;29;19921;-88
2024/03/25 08:13:46;;;;;;;;;;;;;;;;;;4948023;29;19911;-87
2024/03/25 08:16:12;;;;;;;;;;;;;;;;;;4942470;29;19961;-88
2024/03/25 08:18:38;;;;;;;;;;;;;;;;;;4939584;29;19922;-88
2024/03/25 08:21:04;;;;;;;;;;;;;;;;;;4951276;29;19911;-88
2024/03/25 08:23:30;;;;;;;;;;;;;;;;;;4951097;29;19921;-88
2024/03/25 08:25:56;;;;;;;;;;;;;;;;;;4941969;29;19910;-88
2024/03/25 08:28:22;;;;;;;;;;;;;;;;;;4940878;29;19935;-88
2024/03/25 08:30:48;;;;;;;;;;;;;;;;;;4938124;29;19915;-88
2024/03/25 08:33:14;;;;;;;;;;;;;;;;;;4938219;29;19910;-88
2024/03/25 08:35:40;;;;;;;;;;;;;;;;;;4938438;29;19953;-87
2024/03/25 08:38:06;;;;;;;;;;;;;;;;;;4934857;29;19923;-83
2024/03/25 08:40:31;;;;;;;;;;;;;;;;;;4934418;29;19911;-82
2024/03/25 08:42:57;;;;;;;;;;;;;;;;;;4918134;29;19934;-82
2024/03/25 08:45:23;;;;;;;;;;;;;;;;;;4936034;29;19962;-82
2024/03/25 08:47:49;;;;;;;;;;;;;;;;;;4938221;29;19975;-83
2024/03/25 08:50:15;;;;;;;;;;;;;;;;;;4914771;29;19954;-83
2024/03/25 08:52:41;;;;;;;;;;;;;;;;;;4915700;29;19910;-82
2024/03/25 08:55:07;;;;;;;;;;;;;;;;;;4932559;29;19942;-83
2024/03/25 08:57:33;;;;;;;;;;;;;;;;;;4930582;29;19955;-83
2024/03/25 08:59:59;;;;;;;;;;;;;;;;;;4928971;29;19959;-85
2024/03/25 09:02:25;;;;;;;;;;;;;;;;;;4933571;29;19950;-82
2024/03/25 09:04:52;;;;;;;;;;;;;;;;;;4916335;29;19958;-83
2024/03/25 09:07:18;;;;;;;;;;;;;;;;;;4933666;29;19914;-82
2024/03/25 09:12:29;;;;;;;;;;;;;;;;;;4927551;29;19926;-84
2024/03/25 09:14:55;;;;;;;;;;;;;;;;;;4928263;29;20316;-82
2024/03/25 09:17:23;;;;;;;;;;;;;;;;;;4934065;29;19950;-84
2024/03/25 09:19:49;;;;;;;;;;;;;;;;;;4933659;29;20324;-83
2024/03/25 09:22:14;;;;;;;;;;;;;;;;;;4935048;29;19943;-83
2024/03/25 09:24:40;;;;;;;;;;;;;;;;;;4931306;29;19918;-82
2024/03/25 09:27:06;;;;;;;;;;;;;;;;;;4931925;29;19956;-83
2024/03/25 09:29:35;;;;;;;;;;;;;;;;;;4933148;29;19911;-85
2024/03/25 09:32:01;;;;;;;;;;;;;;;;;;4933292;29;20403;-86
2024/03/25 09:34:27;;;;;;;;;;;;;;;;;;4912901;29;20006;-85
2024/03/25 09:36:53;;;;;;;;;;;;;;;;;;4931730;29;19925;-84
2024/03/25 09:39:19;;;;;;;;;;;;;;;;;;4928785;29;20046;-83
2024/03/25 09:41:45;;;;;;;;;;;;;;;;;;4915743;29;19914;-85
2024/03/25 09:44:11;;;;;;;;;;;;;;;;;;4929485;29;19911;-83
2024/03/25 09:46:37;;;;;;;;;;;;;;;;;;4924512;29;19957;-82
2024/03/25 09:49:05;;;;;;;;;;;;;;;;;;4931418;29;19957;-83
2024/03/25 09:51:31;;;;;;;;;;;;;;;;;;4929627;29;19970;-83
2024/03/25 09:53:57;;;;;;;;;;;;;;;;;;4913113;29;20367;-82
2024/03/25 09:56:23;;;;;;;;;;;;;;;;;;4929721;29;20334;-82
2024/03/25 09:58:49;;;;;;;;;;;;;;;;;;4933029;29;20248;-83
2024/03/25 10:01:15;;;;;;;;;;;;;;;;;;4928367;29;19961;-83
2024/03/25 10:03:40;;;;;;;;;;;;;;;;;;4931889;29;19914;-82
2024/03/25 10:06:09;;;;;;;;;;;;;;;;;;4936239;29;19922;-83
2024/03/25 10:08:35;;;;;;;;;;;;;;;;;;4932470;29;19917;-83
2024/03/25 10:11:02;;;;;;;;;;;;;;;;;;4932554;29;19997;-83
2024/03/25 10:13:28;;;;;;;;;;;;;;;;;;4917952;29;19911;-82
2024/03/25 10:15:54;;;;;;;;;;;;;;;;;;4912504;29;20394;-83
2024/03/25 10:18:20;;;;;;;;;;;;;;;;;;4914902;29;19965;-83
2024/03/25 10:20:46;;;;;;;;;;;;;;;;;;4910248;29;19957;-83
2024/03/25 10:23:12;;;;;;;;;;;;;;;;;;4921064;29;19922;-84
2024/03/25 10:25:38;;;;;;;;;;;;;;;;;;4936913;29;19918;-84
2024/03/25 10:28:05;;;;;;;;;;;;;;;;;;4936721;29;21295;-84
2024/03/25 10:30:31;;;;;;;;;;;;;;;;;;4934863;29;19938;-83
2024/03/25 10:32:57;;;;;;;;;;;;;;;;;;4948292;29;19921;-83
2024/03/25 10:35:23;;;;;;;;;;;;;;;;;;4948728;29;19955;-82
2024/03/25 10:37:49;;;;;;;;;;;;;;;;;;4950925;29;19918;-83
2024/03/25 10:40:15;;;;;;;;;;;;;;;;;;4942051;29;19953;-84
2024/03/25 10:42:41;;;;;;;;;;;;;;;;;;4945703;29;19919;-85
2024/03/25 10:45:07;;;;;;;;;;;;;;;;;;4947099;29;19935;-82
2024/03/25 10:47:33;;;;;;;;;;;;;;;;;;4943294;29;19911;-82
2024/03/25 10:49:59;;;;;;;;;;;;;;;;;;4945916;29;20362;-83
2024/03/25 10:52:25;;;;;;;;;;;;;;;;;;4943204;29;19910;-84
2024/03/25 10:54:51;;;;;;;;;;;;;;;;;;4944014;29;20124;-83
2024/03/25 10:57:17;;;;;;;;;;;;;;;;;;4943531;29;19953;-87
2024/03/25 10:59:43;;;;;;;;;;;;;;;;;;4952260;29;19901;-88
2024/03/25 11:02:09;;;;;;;;;;;;;;;;;;4949328;29;19919;-88
2024/03/25 11:04:35;;;;;;;;;;;;;;;;;;4954539;29;20016;-88
2024/03/25 11:07:01;;;;;;;;;;;;;;;;;;4952779;29;19922;-88
2024/03/25 11:09:26;;;;;;;;;;;;;;;;;;4945010;29;19914;-88
2024/03/25 11:11:52;;;;;;;;;;;;;;;;;;4951760;29;19921;-87
2024/03/25 11:14:19;;;;;;;;;;;;;;;;;;4937406;29;19910;-87
2024/03/25 11:16:44;;;;;;;;;;;;;;;;;;4939442;29;20383;-88
2024/03/25 11:19:10;;;;;;;;;;;;;;;;;;4951314;29;19927;-88
2024/03/25 11:21:36;;;;;;;;;;;;;;;;;;4948396;29;19918;-87
2024/03/25 11:24:02;;;;;;;;;;;;;;;;;;4952166;29;19911;-88
2024/03/25 11:26:30;;;;;;;;;;;;;;;;;;4947754;29;19911;-88
2024/03/25 11:28:56;;;;;;;;;;;;;;;;;;4948098;29;19915;-88
2024/03/25 11:31:24;;;;;;;;;;;;;;;;;;4949005;29;19915;-88
2024/03/25 11:33:50;;;;;;;;;;;;;;;;;;4950089;29;19977;-88
2024/03/25 11:36:18;;;;;;;;;;;;;;;;;;4944282;29;19911;-88
2024/03/25 11:38:44;;;;;;;;;;;;;;;;;;4948717;29;19922;-88
2024/03/25 11:41:10;;;;;;;;;;;;;;;;;;4928721;29;19921;-87
2024/03/25 11:43:36;;;;;;;;;;;;;;;;;;4948182;29;19946;-88
2024/03/25 11:46:02;;;;;;;;;;;;;;;;;;4948601;29;19914;-86
2024/03/25 11:48:28;;;;;;;;;;;;;;;;;;4957717;28;19911;-88
2024/03/25 11:50:54;;;;;;;;;;;;;;;;;;4959618;29;19917;-87
2024/03/25 11:53:20;;;;;;;;;;;;;;;;;;4960722;28;19966;-87
2024/03/25 11:55:48;;;;;;;;;;;;;;;;;;4958241;28;19919;-88
2024/03/25 11:58:13;;;;;;;;;;;;;;;;;;4958386;28;19911;-88
2024/03/25 12:00:39;;;;;;;;;;;;;;;;;;4939242;29;20359;-88
2024/03/25 12:03:05;;;;;;;;;;;;;;;;;;4942363;29;19938;-88
2024/03/25 12:05:31;;;;;;;;;;;;;;;;;;4933844;29;19918;-88
2024/03/25 12:07:57;;;;;;;;;;;;;;;;;;4947942;28;19912;-88
2024/03/25 12:13:08;;;;;;;;;;;;;;;;;;4946767;29;19926;-88
2024/03/25 12:15:34;;;;;;;;;;;;;;;;;;4945087;29;19910;-88
2024/03/25 12:18:00;;;;;;;;;;;;;;;;;;4947636;29;19919;-88
2024/03/25 12:20:27;;;;;;;;;;;;;;;;;;4935476;29;19918;-88
2024/03/25 12:22:53;;;;;;;;;;;;;;;;;;4938700;29;19917;-88
2024/03/25 12:25:19;;;;;;;;;;;;;;;;;;4935166;29;19919;-88
2024/03/25 12:27:45;;;;;;;;;;;;;;;;;;4934787;29;20299;-87
2024/03/25 12:30:11;;;;;;;;;;;;;;;;;;4918252;29;19915;-87
2024/03/25 12:32:36;;;;;;;;;;;;;;;;;;4936163;29;19915;-88
2024/03/25 12:35:04;;;;;;;;;;;;;;;;;;4930369;29;19981;-87
2024/03/25 12:37:30;;;;;;;;;;;;;;;;;;4914434;29;19911;-87
2024/03/25 12:39:58;;;;;;;;;;;;;;;;;;4935263;29;19935;-86
2024/03/25 12:42:24;;;;;;;;;;;;;;;;;;4937148;29;19915;-87
2024/03/25 12:44:50;;;;;;;;;;;;;;;;;;4937730;29;19956;-86
2024/03/25 12:47:16;;;;;;;;;;;;;;;;;;4905340;29;19962;-86
2024/03/25 12:49:42;;;;;;;;;;;;;;;;;;4919612;29;19949;-87
2024/03/25 12:52:08;;;;;;;;;;;;;;;;;;4933179;29;19951;-87
2024/03/25 12:54:34;;;;;;;;;;;;;;;;;;4935028;29;20377;-87
2024/03/25 12:57:00;;;;;;;;;;;;;;;;;;4935126;29;19914;-87
2024/03/25 12:59:27;;;;;;;;;;;;;;;;;;4917409;29;19915;-87
2024/03/25 13:01:53;;;;;;;;;;;;;;;;;;4935630;29;19974;-87
2024/03/25 13:04:19;;;;;;;;;;;;;;;;;;4940079;29;19918;-87
2024/03/25 13:06:45;;;;;;;;;;;;;;;;;;4931631;29;19973;-87
2024/03/25 13:09:12;;;;;;;;;;;;;;;;;;4934590;29;19998;-87
2024/03/25 13:11:38;;;;;;;;;;;;;;;;;;4932295;29;20411;-87
2024/03/25 13:14:06;;;;;;;;;;;;;;;;;;4935259;29;20013;-87
2024/03/25 13:16:32;;;;;;;;;;;;;;;;;;4934305;29;20402;-87
2024/03/25 13:18:58;;;;;;;;;;;;;;;;;;4933203;29;20009;-84
2024/03/25 13:21:25;;;;;;;;;;;;;;;;;;4932212;29;19965;-83
2024/03/25 13:23:51;;;;;;;;;;;;;;;;;;4931715;29;19921;-82
2024/03/25 13:26:16;;;;;;;;;;;;;;;;;;4928596;29;19911;-82
2024/03/25 13:28:43;;;;;;;;;;;;;;;;;;4915536;29;20046;-82
2024/03/25 13:31:09;;;;;;;;;;;;;;;;;;4914116;29;20322;-82
2024/03/25 13:33:36;;;;;;;;;;;;;;;;;;4914205;29;19941;-82
2024/03/25 13:36:02;;;;;;;;;;;;;;;;;;4935635;29;20347;-81
2024/03/25 13:38:28;;;;;;;;;;;;;;;;;;4934231;29;19921;-84
2024/03/25 13:40:53;;;;;;;;;;;;;;;;;;4924495;29;19942;-82
2024/03/25 13:43:19;;;;;;;;;;;;;;;;;;4934479;29;20030;-83
2024/03/25 13:45:45;;;;;;;;;;;;;;;;;;4914485;29;19950;-82
2024/03/25 13:48:11;;;;;;;;;;;;;;;;;;4931733;29;20367;-84
2024/03/25 13:50:37;;;;;;;;;;;;;;;;;;4915019;29;19911;-82
2024/03/25 13:53:03;;;;;;;;;;;;;;;;;;4930666;29;19986;-84
2024/03/25 13:55:29;;;;;;;;;;;;;;;;;;4929830;29;19965;-84
2024/03/25 13:57:55;;;;;;;;;;;;;;;;;;4910664;29;19946;-83
2024/03/25 14:00:22;;;;;;;;;;;;;;;;;;4927439;29;19972;-83
2024/03/25 14:02:48;;;;;;;;;;;;;;;;;;4929251;29;19915;-83
2024/03/25 14:05:14;;;;;;;;;;;;;;;;;;4930667;29;19911;-84
2024/03/25 14:07:41;;;;;;;;;;;;;;;;;;4929955;29;19952;-83
2024/03/25 14:10:08;;;;;;;;;;;;;;;;;;4927345;29;20045;-82
2024/03/25 14:12:33;;;;;;;;;;;;;;;;;;4929123;29;19918;-83
2024/03/25 14:14:59;;;;;;;;;;;;;;;;;;4928013;29;20374;-80
2024/03/25 14:17:25;;;;;;;;;;;;;;;;;;4930235;29;20398;-82
2024/03/25 14:19:51;;;;;;;;;;;;;;;;;;4932587;29;20448;-82
2024/03/25 14:22:17;;;;;;;;;;;;;;;;;;4931323;29;19915;-83
2024/03/25 14:24:43;;;;;;;;;;;;;;;;;;4931087;29;19946;-82
2024/03/25 14:27:09;;;;;;;;;;;;;;;;;;4933087;29;19960;-87
2024/03/25 14:29:35;;;;;;;;;;;;;;;;;;4915530;29;19919;-88
2024/03/25 14:32:01;;;;;;;;;;;;;;;;;;4933404;29;19922;-88
2024/03/25 14:34:27;;;;;;;;;;;;;;;;;;4933912;29;19950;-87
2024/03/25 14:36:54;;;;;;;;;;;;;;;;;;4929329;29;19914;-85
2024/03/25 14:39:20;;;;;;;;;;;;;;;;;;4934459;29;19915;-85
2024/03/25 14:41:46;;;;;;;;;;;;;;;;;;4932376;29;19946;-86
2024/03/25 14:44:12;;;;;;;;;;;;;;;;;;4934116;29;19911;-86
2024/03/25 14:46:38;;;;;;;;;;;;;;;;;;4927761;29;20479;-85
2024/03/25 14:49:04;;;;;;;;;;;;;;;;;;4934084;29;19914;-85
2024/03/25 14:51:30;;;;;;;;;;;;;;;;;;4934053;29;19922;-85
2024/03/25 14:53:56;;;;;;;;;;;;;;;;;;4940410;29;19922;-86
2024/03/25 14:56:21;;;;;;;;;;;;;;;;;;4940488;29;19925;-86
2024/03/25 14:58:47;;;;;;;;;;;;;;;;;;4934196;29;20005;-87
2024/03/25 15:01:13;;;;;;;;;;;;;;;;;;4933992;29;19962;-87
2024/03/25 15:03:39;;;;;;;;;;;;;;;;;;4940665;29;19918;-87
2024/03/25 15:06:05;;;;;;;;;;;;;;;;;;4939213;29;19946;-87
2024/03/25 15:08:31;;;;;;;;;;;;;;;;;;4940640;29;19969;-87
2024/03/25 15:10:57;;;;;;;;;;;;;;;;;;4940524;29;19949;-88
2024/03/25 15:13:23;;;;;;;;;;;;;;;;;;4941231;29;19910;-87
2024/03/25 15:15:49;;;;;;;;;;;;;;;;;;4940042;29;21139;-87
2024/03/25 15:18:15;;;;;;;;;;;;;;;;;;4934714;29;20024;-87
2024/03/25 15:20:41;;;;;;;;;;;;;;;;;;4939640;29;19961;-88
2024/03/25 15:23:08;;;;;;;;;;;;;;;;;;4923382;29;19911;-88
2024/03/25 15:25:34;;;;;;;;;;;;;;;;;;4937225;29;19910;-89
2024/03/25 15:28:00;;;;;;;;;;;;;;;;;;4940520;29;19922;-88
2024/03/25 15:30:26;;;;;;;;;;;;;;;;;;4918239;29;19911;-88
2024/03/25 15:32:52;;;;;;;;;;;;;;;;;;4945491;29;19937;-88
2024/03/25 15:35:18;;;;;;;;;;;;;;;;;;4952881;29;19918;-86
2024/03/25 15:37:44;;;;;;;;;;;;;;;;;;4945219;29;19918;-87
2024/03/25 15:40:15;;;;;;;;;;;;;;;;;;4940739;29;19914;-86
2024/03/25 15:42:41;;;;;;;;;;;;;;;;;;4940213;29;19918;-87
2024/03/25 15:45:07;;;;;;;;;;;;;;;;;;4939041;29;20389;-87
2024/03/25 15:47:33;;;;;;;;;;;;;;;;;;4936209;29;19972;-86
2024/03/25 15:49:59;;;;;;;;;;;;;;;;;;4940842;29;20422;-87
2024/03/25 15:52:25;;;;;;;;;;;;;;;;;;4920489;29;20374;-87
2024/03/25 15:54:51;;;;;;;;;;;;;;;;;;4939572;29;20342;-87
2024/03/25 15:57:17;;;;;;;;;;;;;;;;;;4937985;29;20247;-86
2024/03/25 15:59:43;;;;;;;;;;;;;;;;;;4935677;29;19961;-87
2024/03/25 16:02:09;;;;;;;;;;;;;;;;;;4931726;29;19915;-87
2024/03/25 16:04:35;;;;;;;;;;;;;;;;;;4938461;29;19925;-86
2024/03/25 16:07:00;;;;;;;;;;;;;;;;;;4938426;29;19925;-87
2024/03/25 16:09:26;;;;;;;;;;;;;;;;;;4936958;29;20418;-87
2024/03/25 16:11:52;;;;;;;;;;;;;;;;;;4917536;29;20017;-86
2024/03/25 16:14:18;;;;;;;;;;;;;;;;;;4920106;29;19918;-87
2024/03/25 16:16:44;;;;;;;;;;;;;;;;;;4934962;29;19949;-87
2024/03/25 16:19:10;;;;;;;;;;;;;;;;;;4939298;29;19930;-87
2024/03/25 16:21:37;;;;;;;;;;;;;;;;;;4931516;29;19919;-87
2024/03/25 16:24:04;;;;;;;;;;;;;;;;;;4934821;29;19922;-87
2024/03/25 16:26:30;;;;;;;;;;;;;;;;;;4925818;29;19911;-87
2024/03/25 16:28:56;;;;;;;;;;;;;;;;;;4917170;29;20013;-87
2024/03/25 16:31:22;;;;;;;;;;;;;;;;;;4937357;29;19915;-87
2024/03/25 16:33:51;;;;;;;;;;;;;;;;;;4937397;29;19911;-87
2024/03/25 16:36:17;;;;;;;;;;;;;;;;;;4932896;29;19910;-87
2024/03/25 16:38:42;;;;;;;;;;;;;;;;;;4933996;29;19919;-87
2024/03/25 16:41:08;;;;;;;;;;;;;;;;;;4919750;29;19943;-87
2024/03/25 16:43:36;;;;;;;;;;;;;;;;;;4936383;29;19921;-87
2024/03/25 16:46:02;;;;;;;;;;;;;;;;;;4936017;29;19954;-87
2024/03/25 16:48:29;;;;;;;;;;;;;;;;;;4920817;29;19982;-86